sensor_id;sensor_type;location;lat;lon;timestamp;temperature;humidity
60723;DHT22;46574;52.818;6.516;2023-03-14T00:01:22;10.90;99.90
60723;DHT22;46574;52.818;6.516;2023-03-14T00:03:49;10.90;99.90
60723;DHT22;46574;52.818;6.516;2023-03-14T00:06:16;11.00;99.90
60723;DHT22;46574;52.818;6.516;2023-03-14T00:08:43;11.10;99.90
60723;DHT22;46574;52.818;6.516;2023-03-14T00:11:15;11.20;99.90
60723;DHT22;46574;52.818;6.516;2023-03-14T00:13:41;11.20;99.90
60723;DHT22;46574;52.818;6.516;2023-03-14T00:16:12;11.20;99.90
60723;DHT22;46574;52.818;6.516;2023-03-14T00:18:39;11.10;99.90
60723;DHT22;46574;52.818;6.516;2023-03-14T00:21:07;11.10;99.90
60723;DHT22;46574;52.818;6.516;2023-03-14T00:23:34;11.10;99.90
60723;DHT22;46574;52.818;6.516;2023-03-14T00:26:02;11.10;99.90
60723;DHT22;46574;52.818;6.516;2023-03-14T00:28:28;11.10;99.90
60723;DHT22;46574;52.818;6.516;2023-03-14T00:30:54;11.10;99.90
60723;DHT22;46574;52.818;6.516;2023-03-14T00:33:20;11.00;99.90
60723;DHT22;46574;52.818;6.516;2023-03-14T00:35:57;11.00;99.90
60723;DHT22;46574;52.818;6.516;2023-03-14T00:38:23;11.10;99.90
60723;DHT22;46574;52.818;6.516;2023-03-14T00:40:50;11.10;99.90
60723;DHT22;46574;52.818;6.516;2023-03-14T00:43:16;11.10;99.90
60723;DHT22;46574;52.818;6.516;2023-03-14T00:45:42;11.10;99.90
60723;DHT22;46574;52.818;6.516;2023-03-14T00:48:10;11.10;99.90
60723;DHT22;46574;52.818;6.516;2023-03-14T00:50:36;11.10;99.90
60723;DHT22;46574;52.818;6.516;2023-03-14T00:53:02;11.10;99.90
60723;DHT22;46574;52.818;6.516;2023-03-14T00:55:27;11.10;99.90
60723;DHT22;46574;52.818;6.516;2023-03-14T00:57:53;11.10;99.90
60723;DHT22;46574;52.818;6.516;2023-03-14T01:00:19;11.20;99.90
60723;DHT22;46574;52.818;6.516;2023-03-14T01:02:44;11.20;99.90
60723;DHT22;46574;52.818;6.516;2023-03-14T01:05:10;11.20;99.90
60723;DHT22;46574;52.818;6.516;2023-03-14T01:07:36;11.10;99.90
60723;DHT22;46574;52.818;6.516;2023-03-14T01:10:03;11.10;99.90
60723;DHT22;46574;52.818;6.516;2023-03-14T01:12:29;11.10;99.90
60723;DHT22;46574;52.818;6.516;2023-03-14T01:14:54;11.00;99.90
60723;DHT22;46574;52.818;6.516;2023-03-14T01:17:20;11.00;99.90
60723;DHT22;46574;52.818;6.516;2023-03-14T01:19:45;11.00;99.90
60723;DHT22;46574;52.818;6.516;2023-03-14T01:22:11;11.00;99.90
60723;DHT22;46574;52.818;6.516;2023-03-14T01:24:37;11.00;99.90
60723;DHT22;46574;52.818;6.516;2023-03-14T01:27:03;11.10;99.90
60723;DHT22;46574;52.818;6.516;2023-03-14T01:29:29;11.10;99.90
60723;DHT22;46574;52.818;6.516;2023-03-14T01:31:54;11.00;99.90
60723;DHT22;46574;52.818;6.516;2023-03-14T01:34:20;11.10;99.90
60723;DHT22;46574;52.818;6.516;2023-03-14T01:36:45;11.00;99.90
60723;DHT22;46574;52.818;6.516;2023-03-14T01:39:11;11.00;99.90
60723;DHT22;46574;52.818;6.516;2023-03-14T01:41:39;11.00;99.90
60723;DHT22;46574;52.818;6.516;2023-03-14T01:44:05;11.00;99.90
60723;DHT22;46574;52.818;6.516;2023-03-14T01:46:44;11.00;99.90
60723;DHT22;46574;52.818;6.516;2023-03-14T01:49:22;10.90;99.90
60723;DHT22;46574;52.818;6.516;2023-03-14T01:54:40;10.80;99.90
60723;DHT22;46574;52.818;6.516;2023-03-14T01:57:23;10.80;99.90
60723;DHT22;46574;52.818;6.516;2023-03-14T02:00:00;10.80;99.90
60723;DHT22;46574;52.818;6.516;2023-03-14T02:02:27;10.80;99.90
60723;DHT22;46574;52.818;6.516;2023-03-14T02:04:55;10.80;99.90
60723;DHT22;46574;52.818;6.516;2023-03-14T02:07:30;10.80;99.90
60723;DHT22;46574;52.818;6.516;2023-03-14T02:10:00;10.70;99.90
60723;DHT22;46574;52.818;6.516;2023-03-14T02:12:27;10.70;99.90
60723;DHT22;46574;52.818;6.516;2023-03-14T02:14:53;10.70;99.90
60723;DHT22;46574;52.818;6.516;2023-03-14T02:17:19;10.70;99.90
60723;DHT22;46574;52.818;6.516;2023-03-14T02:22:34;10.70;99.90
60723;DHT22;46574;52.818;6.516;2023-03-14T02:28:03;10.70;99.90
60723;DHT22;46574;52.818;6.516;2023-03-14T02:30:31;10.70;99.90
60723;DHT22;46574;52.818;6.516;2023-03-14T02:33:04;10.70;99.90
60723;DHT22;46574;52.818;6.516;2023-03-14T02:35:35;10.70;99.90
60723;DHT22;46574;52.818;6.516;2023-03-14T02:40:43;10.70;99.90
60723;DHT22;46574;52.818;6.516;2023-03-14T02:43:09;10.60;99.90
60723;DHT22;46574;52.818;6.516;2023-03-14T02:45:41;10.60;99.90
60723;DHT22;46574;52.818;6.516;2023-03-14T02:48:13;10.50;99.90
60723;DHT22;46574;52.818;6.516;2023-03-14T02:50:39;10.40;99.90
60723;DHT22;46574;52.818;6.516;2023-03-14T02:53:05;10.40;99.90
60723;DHT22;46574;52.818;6.516;2023-03-14T02:55:31;10.40;99.90
60723;DHT22;46574;52.818;6.516;2023-03-14T02:57:56;10.40;99.90
60723;DHT22;46574;52.818;6.516;2023-03-14T03:00:22;10.30;99.90
60723;DHT22;46574;52.818;6.516;2023-03-14T03:02:48;10.30;99.90
60723;DHT22;46574;52.818;6.516;2023-03-14T03:05:14;10.30;99.90
60723;DHT22;46574;52.818;6.516;2023-03-14T03:07:40;10.30;99.90
60723;DHT22;46574;52.818;6.516;2023-03-14T03:10:06;10.20;99.90
60723;DHT22;46574;52.818;6.516;2023-03-14T03:12:31;10.20;99.90
60723;DHT22;46574;52.818;6.516;2023-03-14T03:14:57;10.20;99.90
60723;DHT22;46574;52.818;6.516;2023-03-14T03:17:23;10.20;99.90
60723;DHT22;46574;52.818;6.516;2023-03-14T03:19:48;10.10;99.90
60723;DHT22;46574;52.818;6.516;2023-03-14T03:22:14;10.10;99.90
60723;DHT22;46574;52.818;6.516;2023-03-14T03:24:40;10.10;99.90
60723;DHT22;46574;52.818;6.516;2023-03-14T03:27:05;10.10;99.90
60723;DHT22;46574;52.818;6.516;2023-03-14T03:29:31;10.10;99.90
60723;DHT22;46574;52.818;6.516;2023-03-14T03:31:57;10.10;99.90
60723;DHT22;46574;52.818;6.516;2023-03-14T03:34:22;10.00;99.90
60723;DHT22;46574;52.818;6.516;2023-03-14T03:36:48;10.00;99.90
60723;DHT22;46574;52.818;6.516;2023-03-14T03:39:13;10.00;99.90
60723;DHT22;46574;52.818;6.516;2023-03-14T03:41:39;10.00;99.90
60723;DHT22;46574;52.818;6.516;2023-03-14T03:44:05;10.00;99.90
60723;DHT22;46574;52.818;6.516;2023-03-14T03:46:31;10.00;99.90
60723;DHT22;46574;52.818;6.516;2023-03-14T03:48:58;10.00;99.90
60723;DHT22;46574;52.818;6.516;2023-03-14T03:51:25;10.00;99.90
60723;DHT22;46574;52.818;6.516;2023-03-14T03:53:50;10.00;99.90
60723;DHT22;46574;52.818;6.516;2023-03-14T03:56:16;10.00;99.90
60723;DHT22;46574;52.818;6.516;2023-03-14T03:58:42;10.00;99.90
60723;DHT22;46574;52.818;6.516;2023-03-14T04:01:09;10.00;99.90
60723;DHT22;46574;52.818;6.516;2023-03-14T04:03:35;10.00;99.90
60723;DHT22;46574;52.818;6.516;2023-03-14T04:06:06;10.00;99.90
60723;DHT22;46574;52.818;6.516;2023-03-14T04:08:32;9.90;99.90
60723;DHT22;46574;52.818;6.516;2023-03-14T04:10:59;9.90;99.90
60723;DHT22;46574;52.818;6.516;2023-03-14T04:13:26;10.00;99.90
60723;DHT22;46574;52.818;6.516;2023-03-14T04:15:53;10.00;99.90
60723;DHT22;46574;52.818;6.516;2023-03-14T04:18:18;10.00;99.90
60723;DHT22;46574;52.818;6.516;2023-03-14T04:20:44;10.00;99.90
60723;DHT22;46574;52.818;6.516;2023-03-14T04:23:10;9.90;99.90
60723;DHT22;46574;52.818;6.516;2023-03-14T04:25:36;9.90;99.90
60723;DHT22;46574;52.818;6.516;2023-03-14T04:28:02;9.90;99.90
60723;DHT22;46574;52.818;6.516;2023-03-14T04:30:29;9.90;99.90
60723;DHT22;46574;52.818;6.516;2023-03-14T04:32:55;9.90;99.90
60723;DHT22;46574;52.818;6.516;2023-03-14T04:35:20;9.80;99.90
60723;DHT22;46574;52.818;6.516;2023-03-14T04:37:46;9.80;99.90
60723;DHT22;46574;52.818;6.516;2023-03-14T04:40:15;9.80;99.90
60723;DHT22;46574;52.818;6.516;2023-03-14T04:42:41;9.80;99.90
60723;DHT22;46574;52.818;6.516;2023-03-14T04:45:07;9.80;99.90
60723;DHT22;46574;52.818;6.516;2023-03-14T04:47:33;9.70;99.90
60723;DHT22;46574;52.818;6.516;2023-03-14T04:49:59;9.70;99.90
60723;DHT22;46574;52.818;6.516;2023-03-14T04:52:24;9.70;99.90
60723;DHT22;46574;52.818;6.516;2023-03-14T04:54:50;9.70;99.90
60723;DHT22;46574;52.818;6.516;2023-03-14T04:57:16;9.70;99.90
60723;DHT22;46574;52.818;6.516;2023-03-14T04:59:41;9.70;99.90
60723;DHT22;46574;52.818;6.516;2023-03-14T05:02:07;9.70;99.90
60723;DHT22;46574;52.818;6.516;2023-03-14T05:04:33;9.70;99.90
60723;DHT22;46574;52.818;6.516;2023-03-14T05:06:59;9.70;99.90
60723;DHT22;46574;52.818;6.516;2023-03-14T05:09:26;9.70;99.90
60723;DHT22;46574;52.818;6.516;2023-03-14T05:11:51;9.70;99.90
60723;DHT22;46574;52.818;6.516;2023-03-14T05:14:17;9.70;99.90
60723;DHT22;46574;52.818;6.516;2023-03-14T05:16:43;9.70;99.90
60723;DHT22;46574;52.818;6.516;2023-03-14T05:19:09;9.80;99.90
60723;DHT22;46574;52.818;6.516;2023-03-14T05:21:36;9.80;99.90
60723;DHT22;46574;52.818;6.516;2023-03-14T05:24:02;9.80;99.90
60723;DHT22;46574;52.818;6.516;2023-03-14T05:26:28;9.90;99.90
60723;DHT22;46574;52.818;6.516;2023-03-14T05:28:53;9.90;99.90
60723;DHT22;46574;52.818;6.516;2023-03-14T05:31:19;9.90;99.90
60723;DHT22;46574;52.818;6.516;2023-03-14T05:33:45;9.90;99.90
60723;DHT22;46574;52.818;6.516;2023-03-14T05:36:10;9.90;99.90
60723;DHT22;46574;52.818;6.516;2023-03-14T05:38:36;9.90;99.90
60723;DHT22;46574;52.818;6.516;2023-03-14T05:41:02;9.90;99.90
60723;DHT22;46574;52.818;6.516;2023-03-14T05:43:27;9.80;99.90
60723;DHT22;46574;52.818;6.516;2023-03-14T05:45:53;9.80;99.90
60723;DHT22;46574;52.818;6.516;2023-03-14T05:48:19;9.80;99.90
60723;DHT22;46574;52.818;6.516;2023-03-14T05:50:44;9.70;99.90
60723;DHT22;46574;52.818;6.516;2023-03-14T05:53:10;9.70;99.90
60723;DHT22;46574;52.818;6.516;2023-03-14T05:55:36;9.70;99.90
60723;DHT22;46574;52.818;6.516;2023-03-14T05:58:01;9.60;99.90
60723;DHT22;46574;52.818;6.516;2023-03-14T06:00:27;9.60;99.90
60723;DHT22;46574;52.818;6.516;2023-03-14T06:02:52;9.60;99.90
60723;DHT22;46574;52.818;6.516;2023-03-14T06:05:18;9.60;99.90
60723;DHT22;46574;52.818;6.516;2023-03-14T06:07:44;9.60;99.90
60723;DHT22;46574;52.818;6.516;2023-03-14T06:10:10;9.50;99.90
60723;DHT22;46574;52.818;6.516;2023-03-14T06:12:36;9.50;99.90
60723;DHT22;46574;52.818;6.516;2023-03-14T06:15:01;9.50;99.90
60723;DHT22;46574;52.818;6.516;2023-03-14T06:17:27;9.50;99.90
60723;DHT22;46574;52.818;6.516;2023-03-14T06:19:53;9.50;99.90
60723;DHT22;46574;52.818;6.516;2023-03-14T06:22:18;9.50;99.90
60723;DHT22;46574;52.818;6.516;2023-03-14T06:24:45;9.50;99.90
60723;DHT22;46574;52.818;6.516;2023-03-14T06:27:10;9.50;99.90
60723;DHT22;46574;52.818;6.516;2023-03-14T06:29:36;9.40;99.90
60723;DHT22;46574;52.818;6.516;2023-03-14T06:32:02;9.50;99.90
60723;DHT22;46574;52.818;6.516;2023-03-14T06:34:28;9.50;99.90
60723;DHT22;46574;52.818;6.516;2023-03-14T06:36:53;9.50;99.90
60723;DHT22;46574;52.818;6.516;2023-03-14T06:39:19;9.50;99.90
60723;DHT22;46574;52.818;6.516;2023-03-14T06:41:45;9.50;99.90
60723;DHT22;46574;52.818;6.516;2023-03-14T06:44:10;9.50;99.90
60723;DHT22;46574;52.818;6.516;2023-03-14T06:46:36;9.60;99.90
60723;DHT22;46574;52.818;6.516;2023-03-14T06:49:01;9.60;99.90
60723;DHT22;46574;52.818;6.516;2023-03-14T06:51:28;9.60;99.90
60723;DHT22;46574;52.818;6.516;2023-03-14T06:53:53;9.60;99.90
60723;DHT22;46574;52.818;6.516;2023-03-14T06:56:19;9.60;99.90
60723;DHT22;46574;52.818;6.516;2023-03-14T06:58:45;9.60;99.90
60723;DHT22;46574;52.818;6.516;2023-03-14T07:01:21;9.60;99.90
60723;DHT22;46574;52.818;6.516;2023-03-14T07:03:48;9.60;99.90
60723;DHT22;46574;52.818;6.516;2023-03-14T07:06:13;9.60;99.90
60723;DHT22;46574;52.818;6.516;2023-03-14T07:08:39;9.60;99.90
60723;DHT22;46574;52.818;6.516;2023-03-14T07:11:05;9.60;99.90
60723;DHT22;46574;52.818;6.516;2023-03-14T07:13:30;9.60;99.90
60723;DHT22;46574;52.818;6.516;2023-03-14T07:15:56;9.50;99.90
60723;DHT22;46574;52.818;6.516;2023-03-14T07:18:22;9.40;99.90
60723;DHT22;46574;52.818;6.516;2023-03-14T07:20:47;9.30;99.90
60723;DHT22;46574;52.818;6.516;2023-03-14T07:23:13;9.30;99.90
60723;DHT22;46574;52.818;6.516;2023-03-14T07:25:38;9.10;99.90
60723;DHT22;46574;52.818;6.516;2023-03-14T07:28:04;9.10;99.90
60723;DHT22;46574;52.818;6.516;2023-03-14T07:30:30;9.00;99.90
60723;DHT22;46574;52.818;6.516;2023-03-14T07:32:56;8.20;99.90
60723;DHT22;46574;52.818;6.516;2023-03-14T07:35:21;7.60;99.90
60723;DHT22;46574;52.818;6.516;2023-03-14T07:37:47;7.30;99.90
60723;DHT22;46574;52.818;6.516;2023-03-14T07:40:12;7.10;99.90
60723;DHT22;46574;52.818;6.516;2023-03-14T07:42:43;7.00;99.90
60723;DHT22;46574;52.818;6.516;2023-03-14T07:45:10;6.80;99.90
60723;DHT22;46574;52.818;6.516;2023-03-14T07:47:36;6.60;99.90
60723;DHT22;46574;52.818;6.516;2023-03-14T07:50:03;6.40;99.90
60723;DHT22;46574;52.818;6.516;2023-03-14T07:52:29;6.30;99.90
60723;DHT22;46574;52.818;6.516;2023-03-14T07:54:55;6.20;99.90
60723;DHT22;46574;52.818;6.516;2023-03-14T07:57:21;6.10;99.90
60723;DHT22;46574;52.818;6.516;2023-03-14T07:59:46;5.80;99.90
60723;DHT22;46574;52.818;6.516;2023-03-14T08:02:12;5.70;99.90
60723;DHT22;46574;52.818;6.516;2023-03-14T08:04:39;5.60;99.90
60723;DHT22;46574;52.818;6.516;2023-03-14T08:07:05;5.60;99.90
60723;DHT22;46574;52.818;6.516;2023-03-14T08:09:31;5.40;99.90
60723;DHT22;46574;52.818;6.516;2023-03-14T08:11:57;5.20;99.90
60723;DHT22;46574;52.818;6.516;2023-03-14T08:14:22;5.30;99.90
60723;DHT22;46574;52.818;6.516;2023-03-14T08:16:50;5.30;99.90
60723;DHT22;46574;52.818;6.516;2023-03-14T08:19:16;5.30;99.90
60723;DHT22;46574;52.818;6.516;2023-03-14T08:21:41;5.30;99.90
60723;DHT22;46574;52.818;6.516;2023-03-14T08:24:07;5.40;99.90
60723;DHT22;46574;52.818;6.516;2023-03-14T08:26:33;5.40;99.90
60723;DHT22;46574;52.818;6.516;2023-03-14T08:28:59;5.40;99.90
60723;DHT22;46574;52.818;6.516;2023-03-14T08:31:24;5.50;99.90
60723;DHT22;46574;52.818;6.516;2023-03-14T08:33:50;5.50;99.90
60723;DHT22;46574;52.818;6.516;2023-03-14T08:36:18;5.50;99.90
60723;DHT22;46574;52.818;6.516;2023-03-14T08:38:44;5.50;99.90
60723;DHT22;46574;52.818;6.516;2023-03-14T08:41:10;5.50;99.90
60723;DHT22;46574;52.818;6.516;2023-03-14T08:43:36;5.60;99.90
60723;DHT22;46574;52.818;6.516;2023-03-14T08:46:02;5.60;99.90
60723;DHT22;46574;52.818;6.516;2023-03-14T08:48:29;5.60;99.90
60723;DHT22;46574;52.818;6.516;2023-03-14T08:51:09;5.70;99.90
60723;DHT22;46574;52.818;6.516;2023-03-14T08:53:36;5.70;99.90
60723;DHT22;46574;52.818;6.516;2023-03-14T08:56:02;5.70;99.90
60723;DHT22;46574;52.818;6.516;2023-03-14T08:58:29;5.70;99.90
60723;DHT22;46574;52.818;6.516;2023-03-14T09:00:55;5.70;99.90
60723;DHT22;46574;52.818;6.516;2023-03-14T09:03:20;5.80;99.90
60723;DHT22;46574;52.818;6.516;2023-03-14T09:05:49;5.80;99.90
60723;DHT22;46574;52.818;6.516;2023-03-14T09:08:14;5.90;99.90
60723;DHT22;46574;52.818;6.516;2023-03-14T09:10:40;5.90;99.90
60723;DHT22;46574;52.818;6.516;2023-03-14T09:13:06;6.00;99.90
60723;DHT22;46574;52.818;6.516;2023-03-14T09:15:32;6.00;99.90
60723;DHT22;46574;52.818;6.516;2023-03-14T09:17:58;6.10;99.90
60723;DHT22;46574;52.818;6.516;2023-03-14T09:20:23;6.10;99.90
60723;DHT22;46574;52.818;6.516;2023-03-14T09:22:49;6.30;99.90
60723;DHT22;46574;52.818;6.516;2023-03-14T09:25:15;6.40;99.90
60723;DHT22;46574;52.818;6.516;2023-03-14T09:27:41;6.40;99.90
60723;DHT22;46574;52.818;6.516;2023-03-14T09:30:07;6.40;99.90
60723;DHT22;46574;52.818;6.516;2023-03-14T09:32:33;6.50;99.90
60723;DHT22;46574;52.818;6.516;2023-03-14T09:34:58;6.50;99.90
60723;DHT22;46574;52.818;6.516;2023-03-14T09:37:24;6.60;99.90
60723;DHT22;46574;52.818;6.516;2023-03-14T09:39:50;6.70;99.90
60723;DHT22;46574;52.818;6.516;2023-03-14T09:42:23;6.80;99.90
60723;DHT22;46574;52.818;6.516;2023-03-14T09:44:57;6.90;99.90
60723;DHT22;46574;52.818;6.516;2023-03-14T09:47:25;6.90;99.90
60723;DHT22;46574;52.818;6.516;2023-03-14T09:49:51;7.00;99.90
60723;DHT22;46574;52.818;6.516;2023-03-14T09:52:24;7.10;99.90
60723;DHT22;46574;52.818;6.516;2023-03-14T09:54:53;7.10;99.90
60723;DHT22;46574;52.818;6.516;2023-03-14T09:57:23;7.10;99.90
60723;DHT22;46574;52.818;6.516;2023-03-14T09:59:50;7.10;99.90
60723;DHT22;46574;52.818;6.516;2023-03-14T10:02:53;7.10;99.90
60723;DHT22;46574;52.818;6.516;2023-03-14T10:05:22;7.20;99.90
60723;DHT22;46574;52.818;6.516;2023-03-14T10:07:48;6.90;99.90
60723;DHT22;46574;52.818;6.516;2023-03-14T10:10:20;6.70;99.90
60723;DHT22;46574;52.818;6.516;2023-03-14T10:12:48;6.20;99.90
60723;DHT22;46574;52.818;6.516;2023-03-14T10:15:25;6.30;99.90
60723;DHT22;46574;52.818;6.516;2023-03-14T10:17:51;6.30;99.90
60723;DHT22;46574;52.818;6.516;2023-03-14T10:20:38;6.40;99.90
60723;DHT22;46574;52.818;6.516;2023-03-14T10:23:07;6.50;99.90
60723;DHT22;46574;52.818;6.516;2023-03-14T10:25:45;6.60;99.90
60723;DHT22;46574;52.818;6.516;2023-03-14T10:30:48;6.80;99.90
60723;DHT22;46574;52.818;6.516;2023-03-14T10:33:35;6.80;99.90
60723;DHT22;46574;52.818;6.516;2023-03-14T10:38:44;6.50;99.90
60723;DHT22;46574;52.818;6.516;2023-03-14T10:41:19;6.60;99.90
60723;DHT22;46574;52.818;6.516;2023-03-14T10:43:51;6.70;99.90
60723;DHT22;46574;52.818;6.516;2023-03-14T10:46:20;6.70;99.90
60723;DHT22;46574;52.818;6.516;2023-03-14T10:48:46;6.80;99.90
60723;DHT22;46574;52.818;6.516;2023-03-14T10:54:13;7.00;99.90
60723;DHT22;46574;52.818;6.516;2023-03-14T10:56:38;7.20;99.90
60723;DHT22;46574;52.818;6.516;2023-03-14T10:59:12;7.20;99.90
60723;DHT22;46574;52.818;6.516;2023-03-14T11:01:41;7.20;99.90
60723;DHT22;46574;52.818;6.516;2023-03-14T11:06:50;7.50;99.90
60723;DHT22;46574;52.818;6.516;2023-03-14T11:09:45;7.50;99.90
60723;DHT22;46574;52.818;6.516;2023-03-14T11:12:36;7.50;99.90
60723;DHT22;46574;52.818;6.516;2023-03-14T11:18:05;7.40;99.90
60723;DHT22;46574;52.818;6.516;2023-03-14T11:20:53;7.50;99.90
60723;DHT22;46574;52.818;6.516;2023-03-14T11:29:08;7.70;99.90
60723;DHT22;46574;52.818;6.516;2023-03-14T11:31:38;7.40;99.90
60723;DHT22;46574;52.818;6.516;2023-03-14T11:34:32;7.20;99.90
60723;DHT22;46574;52.818;6.516;2023-03-14T11:37:05;7.20;99.90
60723;DHT22;46574;52.818;6.516;2023-03-14T11:39:40;7.30;99.90
60723;DHT22;46574;52.818;6.516;2023-03-14T11:42:12;7.60;99.90
60723;DHT22;46574;52.818;6.516;2023-03-14T11:44:40;7.60;99.90
60723;DHT22;46574;52.818;6.516;2023-03-14T11:47:41;7.40;99.90
60723;DHT22;46574;52.818;6.516;2023-03-14T11:50:17;7.50;99.90
60723;DHT22;46574;52.818;6.516;2023-03-14T11:52:58;7.40;99.90
60723;DHT22;46574;52.818;6.516;2023-03-14T11:55:35;7.60;99.90
60723;DHT22;46574;52.818;6.516;2023-03-14T12:00:49;7.50;99.90
60723;DHT22;46574;52.818;6.516;2023-03-14T12:03:39;7.50;99.90
60723;DHT22;46574;52.818;6.516;2023-03-14T12:13:58;8.00;99.90
60723;DHT22;46574;52.818;6.516;2023-03-14T12:18:53;7.70;99.90
60723;DHT22;46574;52.818;6.516;2023-03-14T12:21:20;7.80;99.90
60723;DHT22;46574;52.818;6.516;2023-03-14T12:23:56;7.90;99.90
60723;DHT22;46574;52.818;6.516;2023-03-14T12:26:25;8.00;99.90
60723;DHT22;46574;52.818;6.516;2023-03-14T12:42:10;7.40;93.70
60723;DHT22;46574;52.818;6.516;2023-03-14T12:50:18;7.60;98.50
60723;DHT22;46574;52.818;6.516;2023-03-14T12:53:07;7.60;99.90
60723;DHT22;46574;52.818;6.516;2023-03-14T12:55:48;7.70;99.90
60723;DHT22;46574;52.818;6.516;2023-03-14T13:01:05;8.00;99.90
60723;DHT22;46574;52.818;6.516;2023-03-14T13:06:48;7.50;99.90
60723;DHT22;46574;52.818;6.516;2023-03-14T13:12:29;7.40;99.90
60723;DHT22;46574;52.818;6.516;2023-03-14T13:14:51;7.40;99.90
60723;DHT22;46574;52.818;6.516;2023-03-14T13:17:31;7.50;99.90
60723;DHT22;46574;52.818;6.516;2023-03-14T13:20:02;7.50;99.90
60723;DHT22;46574;52.818;6.516;2023-03-14T13:22:33;7.50;99.90
60723;DHT22;46574;52.818;6.516;2023-03-14T13:25:01;7.80;99.90
60723;DHT22;46574;52.818;6.516;2023-03-14T13:27:30;8.00;99.90
60723;DHT22;46574;52.818;6.516;2023-03-14T13:29:57;8.30;99.90
60723;DHT22;46574;52.818;6.516;2023-03-14T13:32:27;8.70;99.90
60723;DHT22;46574;52.818;6.516;2023-03-14T13:34:57;8.50;95.20
60723;DHT22;46574;52.818;6.516;2023-03-14T13:37:25;8.30;96.00
60723;DHT22;46574;52.818;6.516;2023-03-14T13:39:56;8.30;86.90
60723;DHT22;46574;52.818;6.516;2023-03-14T13:42:28;8.40;88.60
60723;DHT22;46574;52.818;6.516;2023-03-14T13:44:56;8.50;86.70
60723;DHT22;46574;52.818;6.516;2023-03-14T13:47:24;8.20;79.30
60723;DHT22;46574;52.818;6.516;2023-03-14T13:49:50;7.70;75.70
60723;DHT22;46574;52.818;6.516;2023-03-14T13:52:29;7.70;78.60
60723;DHT22;46574;52.818;6.516;2023-03-14T13:54:57;7.80;80.40
60723;DHT22;46574;52.818;6.516;2023-03-14T13:57:23;7.70;72.60
60723;DHT22;46574;52.818;6.516;2023-03-14T14:00:00;7.40;79.20
60723;DHT22;46574;52.818;6.516;2023-03-14T14:02:27;7.20;81.20
60723;DHT22;46574;52.818;6.516;2023-03-14T14:04:53;7.10;90.50
60723;DHT22;46574;52.818;6.516;2023-03-14T14:07:19;7.30;92.70
60723;DHT22;46574;52.818;6.516;2023-03-14T14:09:48;7.20;90.50
60723;DHT22;46574;52.818;6.516;2023-03-14T14:12:19;7.10;92.50
60723;DHT22;46574;52.818;6.516;2023-03-14T14:15:00;7.10;93.60
60723;DHT22;46574;52.818;6.516;2023-03-14T14:17:38;7.20;96.00
60723;DHT22;46574;52.818;6.516;2023-03-14T14:20:07;7.80;91.20
60723;DHT22;46574;52.818;6.516;2023-03-14T14:22:34;8.20;91.10
60723;DHT22;46574;52.818;6.516;2023-03-14T14:25:00;8.80;89.90
60723;DHT22;46574;52.818;6.516;2023-03-14T14:27:38;9.20;88.20
60723;DHT22;46574;52.818;6.516;2023-03-14T14:30:29;8.80;73.60
60723;DHT22;46574;52.818;6.516;2023-03-14T14:33:09;8.60;71.80
60723;DHT22;46574;52.818;6.516;2023-03-14T14:35:35;8.20;73.90
60723;DHT22;46574;52.818;6.516;2023-03-14T14:38:02;7.80;87.50
60723;DHT22;46574;52.818;6.516;2023-03-14T14:40:34;7.50;81.20
60723;DHT22;46574;52.818;6.516;2023-03-14T14:43:22;7.20;86.30
60723;DHT22;46574;52.818;6.516;2023-03-14T14:45:50;7.30;87.30
60723;DHT22;46574;52.818;6.516;2023-03-14T14:48:20;7.60;83.10
60723;DHT22;46574;52.818;6.516;2023-03-14T14:51:01;7.50;84.40
60723;DHT22;46574;52.818;6.516;2023-03-14T14:53:38;7.30;82.60
60723;DHT22;46574;52.818;6.516;2023-03-14T14:56:28;7.30;87.40
60723;DHT22;46574;52.818;6.516;2023-03-14T14:59:01;7.40;90.00
60723;DHT22;46574;52.818;6.516;2023-03-14T15:01:39;7.80;89.90
60723;DHT22;46574;52.818;6.516;2023-03-14T15:04:13;8.30;94.70
60723;DHT22;46574;52.818;6.516;2023-03-14T15:06:42;8.50;86.50
60723;DHT22;46574;52.818;6.516;2023-03-14T15:09:11;8.50;89.20
60723;DHT22;46574;52.818;6.516;2023-03-14T15:11:37;8.30;80.10
60723;DHT22;46574;52.818;6.516;2023-03-14T15:14:03;8.10;74.20
60723;DHT22;46574;52.818;6.516;2023-03-14T15:16:30;8.00;77.90
60723;DHT22;46574;52.818;6.516;2023-03-14T15:19:01;7.90;82.70
60723;DHT22;46574;52.818;6.516;2023-03-14T15:21:31;8.00;77.30
60723;DHT22;46574;52.818;6.516;2023-03-14T15:23:56;8.00;88.80
60723;DHT22;46574;52.818;6.516;2023-03-14T15:26:24;8.10;81.40
60723;DHT22;46574;52.818;6.516;2023-03-14T15:28:51;8.10;79.30
60723;DHT22;46574;52.818;6.516;2023-03-14T15:31:18;7.80;78.70
60723;DHT22;46574;52.818;6.516;2023-03-14T15:33:45;7.60;76.60
60723;DHT22;46574;52.818;6.516;2023-03-14T15:36:32;7.40;81.20
60723;DHT22;46574;52.818;6.516;2023-03-14T15:38:58;7.10;77.70
60723;DHT22;46574;52.818;6.516;2023-03-14T15:41:26;6.90;84.90
60723;DHT22;46574;52.818;6.516;2023-03-14T15:43:54;6.90;87.40
60723;DHT22;46574;52.818;6.516;2023-03-14T15:46:20;6.80;88.40
60723;DHT22;46574;52.818;6.516;2023-03-14T15:48:48;6.70;93.20
60723;DHT22;46574;52.818;6.516;2023-03-14T15:51:14;6.70;97.40
60723;DHT22;46574;52.818;6.516;2023-03-14T15:53:41;6.80;99.90
60723;DHT22;46574;52.818;6.516;2023-03-14T15:56:12;6.70;99.90
60723;DHT22;46574;52.818;6.516;2023-03-14T15:58:38;6.60;99.90
60723;DHT22;46574;52.818;6.516;2023-03-14T16:01:09;6.60;99.90
60723;DHT22;46574;52.818;6.516;2023-03-14T16:03:35;6.70;99.90
60723;DHT22;46574;52.818;6.516;2023-03-14T16:06:01;6.80;99.90
60723;DHT22;46574;52.818;6.516;2023-03-14T16:08:27;6.70;99.90
60723;DHT22;46574;52.818;6.516;2023-03-14T16:10:55;6.70;99.90
60723;DHT22;46574;52.818;6.516;2023-03-14T16:13:20;6.70;99.90
60723;DHT22;46574;52.818;6.516;2023-03-14T16:15:59;6.70;99.90
60723;DHT22;46574;52.818;6.516;2023-03-14T16:18:28;6.70;99.90
60723;DHT22;46574;52.818;6.516;2023-03-14T16:20:59;6.70;99.60
60723;DHT22;46574;52.818;6.516;2023-03-14T16:23:26;6.70;99.90
60723;DHT22;46574;52.818;6.516;2023-03-14T16:25:53;6.70;96.80
60723;DHT22;46574;52.818;6.516;2023-03-14T16:28:19;6.60;99.40
60723;DHT22;46574;52.818;6.516;2023-03-14T16:30:44;6.50;99.90
60723;DHT22;46574;52.818;6.516;2023-03-14T16:33:12;6.50;98.70
60723;DHT22;46574;52.818;6.516;2023-03-14T16:35:38;6.00;99.90
60723;DHT22;46574;52.818;6.516;2023-03-14T16:38:04;5.50;99.90
60723;DHT22;46574;52.818;6.516;2023-03-14T16:40:30;5.20;99.90
60723;DHT22;46574;52.818;6.516;2023-03-14T16:42:56;4.60;99.90
60723;DHT22;46574;52.818;6.516;2023-03-14T16:45:21;4.40;99.90
60723;DHT22;46574;52.818;6.516;2023-03-14T16:47:47;4.30;99.90
60723;DHT22;46574;52.818;6.516;2023-03-14T16:50:13;4.20;99.90
60723;DHT22;46574;52.818;6.516;2023-03-14T16:52:38;4.30;99.90
60723;DHT22;46574;52.818;6.516;2023-03-14T16:55:04;4.30;99.90
60723;DHT22;46574;52.818;6.516;2023-03-14T16:57:32;4.40;99.90
60723;DHT22;46574;52.818;6.516;2023-03-14T16:59:58;4.40;99.90
60723;DHT22;46574;52.818;6.516;2023-03-14T17:02:23;4.40;99.90